To NAV CANADA Home Page Login to a new session Search on AWWS site Feedback and Comments Disclaimer Vers la page française équivalente Tips FAQ What's new on the site To the Forecasts and Observations / NOTAM section To "File a Flight Plan" website Publications and other links Update of the User's profile FIC Telephone Numbers My Weather Data Folder Route Weather Data Regional Weather Data Local Weather Data To the Forecasts and Observations / NOTAM section
Request Generated 03/03/2015 at 16:29:32 UTC . Weather information available at that time is displayed.

METAR/TAF

WHITEHORSE/ERIK NIELSEN INTL/YT    

METAR CYXY 031600Z 18018KT 40SM FEW070 BKN110 OVC170 M09/M18 A3002
RMK AC2AC4AC2 SLP218=
METAR CYXY 031500Z 18019KT 40SM BKN070 BKN090 BKN150 M09/M18 A3003
RMK AC5AC1AC1 SLP222=
METAR CYXY 031400Z 17021KT 15SM BKN095 OVC160 M09/M18 A3006 RMK
AC6AC2 SLP228=

TAF CYXY 031138Z 0312/0324 18018KT P6SM SCT220
FM031600 17012KT P6SM FEW060 BKN120
RMK NXT FCST BY 031800Z=
Your time UTC time
Weather data provided by Environment Canada and NAV CANADA